Time;durP1;ratioP1;P1;durP2;ratioP2;P2;SDS_P1;SDS_P2;PMS_P1;PMS_P2;Temp;Humidity;BMP_temperature;BMP_pressure;BME280_temperature;BME280_humidity;BME280_pressure;Samples;Min_cycle;Max_cycle;Signal;HPM_P1;HPM_P2
2021/04/16 00:03:21;;;;;;;19.65;11.35;;;;;;;10.52;83.53;99227.52;4311237;82;28584;-75
2021/04/16 00:09:25;;;;;;;15.48;9.48;;;;;;;10.58;83.32;99223.94;4323032;82;28576;-76
2021/04/16 00:15:31;;;;;;;17.30;8.50;;;;;;;11.06;77.82;99218.72;4305727;81;28647;-75
2021/04/16 00:21:33;;;;;;;20.10;10.90;;;;;;;10.45;82.84;99214.67;4328876;82;28615;-78
2021/04/16 00:27:35;;;;;;;16.67;9.38;;;;;;;10.75;80.71;99203.12;4328627;82;28612;-76
2021/04/16 00:33:37;;;;;;;19.45;10.65;;;;;;;10.82;78.79;99196.30;4328103;82;28614;-76
2021/04/16 00:39:40;;;;;;;17.82;10.35;;;;;;;10.47;82.10;99199.16;4275826;82;28596;-76
2021/04/16 00:45:44;;;;;;;17.85;10.00;;;;;;;10.38;83.17;99200.48;4235549;83;28603;-76
2021/04/16 00:51:54;;;;;;;20.90;11.40;;;;;;;10.76;78.93;99194.00;4224917;84;28595;-77
2021/04/16 00:57:57;;;;;;;17.15;10.00;;;;;;;11.29;74.82;99207.70;4238486;84;28656;-76
2021/04/16 01:04:00;;;;;;;16.57;9.23;;;;;;;10.88;76.86;99208.84;4219406;83;28636;-76
2021/04/16 01:10:04;;;;;;;16.57;9.30;;;;;;;10.92;76.36;99203.28;4238510;83;28611;-77
2021/04/16 01:16:11;;;;;;;14.60;9.18;;;;;;;10.84;76.73;99192.34;4262849;82;28597;-77
2021/04/16 01:22:22;;;;;;;16.27;8.95;;;;;;;10.67;77.53;99196.20;4215575;84;28628;-77
2021/04/16 01:28:25;;;;;;;13.45;8.00;;;;;;;10.64;77.93;99196.66;4241889;83;28598;-77
2021/04/16 01:34:28;;;;;;;16.10;9.73;;;;;;;10.37;80.62;99201.53;4274319;83;28611;-76
2021/04/16 01:40:31;;;;;;;14.53;8.60;;;;;;;10.39;80.53;99202.13;4258878;83;28595;-76
2021/04/16 01:46:53;;;;;;;16.65;9.80;;;;;;;10.67;77.74;99196.70;4300323;82;28588;-77
2021/04/16 01:53:01;;;;;;;14.83;8.28;;;;;;;10.19;83.51;99190.55;4383467;81;28594;-76
2021/04/16 01:59:10;;;;;;;16.77;9.10;;;;;;;10.40;80.02;99188.44;4387991;81;28637;-76
2021/04/16 02:05:13;;;;;;;15.38;9.30;;;;;;;10.40;79.97;99178.23;4339110;81;28603;-75
2021/04/16 02:11:15;;;;;;;16.17;9.60;;;;;;;10.06;83.60;99179.16;4329598;82;28572;-75
2021/04/16 02:17:23;;;;;;;16.12;8.68;;;;;;;10.41;77.78;99177.17;4414857;81;28588;-77
2021/04/16 02:23:25;;;;;;;14.55;8.15;;;;;;;10.49;77.61;99182.28;4353770;81;28567;-77
2021/04/16 02:29:28;;;;;;;14.50;8.28;;;;;;;10.27;79.29;99173.33;4337711;82;28597;-76
2021/04/16 02:35:31;;;;;;;15.83;9.03;;;;;;;9.87;82.33;99170.55;4281369;82;28575;-76
2021/04/16 02:41:34;;;;;;;17.52;9.20;;;;;;;10.20;80.06;99168.55;4331816;81;28571;-76
2021/04/16 02:47:36;;;;;;;16.23;8.85;;;;;;;10.04;80.80;99161.91;4352760;81;28583;-78
2021/04/16 02:53:39;;;;;;;19.55;10.28;;;;;;;10.24;78.86;99165.69;4312697;82;28568;-77
2021/04/16 02:59:41;;;;;;;21.33;9.88;;;;;;;9.95;81.66;99170.80;4302783;83;28568;-77
2021/04/16 03:05:43;;;;;;;21.82;10.60;;;;;;;9.73;81.28;99166.38;4273977;83;28724;-77
2021/04/16 03:11:45;;;;;;;23.50;11.97;;;;;;;10.07;77.88;99171.39;4287958;82;28668;-76
2021/04/16 03:17:48;;;;;;;23.38;10.70;;;;;;;10.08;77.64;99171.69;4264754;82;28630;-76
2021/04/16 03:23:51;;;;;;;19.42;10.35;;;;;;;10.09;77.02;99169.30;4314768;82;28599;-76
2021/04/16 03:29:53;;;;;;;22.87;10.23;;;;;;;9.91;78.93;99165.56;4295621;82;44472;-76
2021/04/16 03:35:55;;;;;;;23.60;11.25;;;;;;;9.72;80.78;99159.38;4297303;82;28609;-76
2021/04/16 03:41:58;;;;;;;22.32;10.50;;;;;;;9.96;79.33;99164.38;4270976;83;28574;-76
2021/04/16 03:48:00;;;;;;;21.57;9.90;;;;;;;10.23;76.52;99173.45;4281369;83;28614;-76
2021/04/16 03:54:02;;;;;;;21.80;10.25;;;;;;;9.79;80.53;99168.19;4280680;83;28598;-76
2021/04/16 04:00:09;;;;;;;20.77;10.20;;;;;;;9.80;80.72;99173.02;4278661;83;28577;-76
2021/04/16 04:06:10;;;;;;;;;;;;;;;9.87;79.91;99173.23;4286370;82;28630;-76
2021/04/16 04:12:13;;;;;;;19.02;8.63;;;;;;;9.65;80.85;99174.72;4281525;83;23806;-77
2021/04/16 04:18:15;;;;;;;20.30;10.18;;;;;;;9.88;78.85;99173.53;4281010;83;28652;-76
2021/04/16 04:24:18;;;;;;;18.45;9.35;;;;;;;9.48;82.20;99173.42;4281082;82;28605;-76
2021/04/16 04:30:26;;;;;;;19.65;9.38;;;;;;;9.43;82.73;99176.47;4281528;83;28588;-77
2021/04/16 04:36:28;;;;;;;19.57;9.30;;;;;;;9.35;83.27;99177.57;4281533;83;28579;-75
2021/04/16 04:42:33;;;;;;;19.23;9.80;;;;;;;9.52;81.05;99179.17;4281263;83;28602;-76
2021/04/16 04:48:35;;;;;;;22.02;11.03;;;;;;;9.19;85.87;99181.62;4275288;82;28575;-75
2021/04/16 04:54:39;;;;;;;22.77;10.63;;;;;;;9.80;79.53;99177.05;4240460;83;28752;-76
2021/04/16 05:00:41;;;;;;;20.82;11.08;;;;;;;10.16;76.69;99176.77;4243844;83;28682;-75
2021/04/16 05:06:43;;;;;;;18.12;9.33;;;;;;;10.14;77.07;99176.15;4319911;82;28580;-75
2021/04/16 05:12:46;;;;;;;20.05;9.93;;;;;;;9.92;78.44;99170.42;4319179;82;28610;-75
2021/04/16 05:18:52;;;;;;;18.60;10.40;;;;;;;10.13;76.86;99179.88;4318636;81;28579;-75
2021/04/16 05:24:53;;;;;;;19.55;9.63;;;;;;;9.86;79.25;99178.86;4318405;82;28602;-75
2021/04/16 05:30:55;;;;;;;17.85;9.93;;;;;;;10.28;75.35;99176.30;4317600;82;28601;-77
2021/04/16 05:36:57;;;;;;;19.05;9.80;;;;;;;10.06;77.22;99179.96;4317734;82;28615;-76
2021/04/16 05:42:59;;;;;;;21.35;10.38;;;;;;;9.80;78.43;99189.97;4318746;82;28570;-77
2021/04/16 05:49:02;;;;;;;17.10;8.98;;;;;;;9.87;78.75;99192.03;4357532;81;28649;-76
2021/04/16 05:55:05;;;;;;;17.75;9.28;;;;;;;10.18;77.37;99193.48;4391067;81;28946;-77
2021/04/16 06:01:09;;;;;;;16.93;9.10;;;;;;;9.95;78.46;99192.80;4315419;81;28606;-76
2021/04/16 06:07:11;;;;;;;16.40;8.30;;;;;;;9.88;79.31;99185.62;4316152;81;28613;-77
2021/04/16 06:13:13;;;;;;;15.63;8.13;;;;;;;9.66;81.40;99171.82;4312381;81;28664;-76
2021/04/16 06:19:15;;;;;;;14.87;8.40;;;;;;;9.88;80.72;99175.41;4310542;82;28574;-77
2021/04/16 06:25:25;;;;;;;16.73;8.88;;;;;;;10.17;78.28;99178.41;4339683;82;28572;-76
2021/04/16 06:31:27;;;;;;;12.55;8.05;;;;;;;10.16;78.32;99177.57;4330219;82;28578;-77
2021/04/16 06:37:29;;;;;;;16.25;9.15;;;;;;;9.81;81.72;99168.78;4304358;82;28650;-75
2021/04/16 06:43:37;;;;;;;16.40;8.98;;;;;;;9.55;85.24;99172.55;4267108;81;28634;-75
2021/04/16 06:49:41;;;;;;;14.95;8.43;;;;;;;9.75;81.86;99164.28;4315455;82;28578;-76
2021/04/16 06:56:09;;;;;;;14.73;8.28;;;;;;;9.88;81.90;99171.39;4310595;82;28580;-75
2021/04/16 07:02:15;;;;;;;17.87;9.30;;;;;;;9.86;82.09;99172.95;4307411;81;28645;-77
2021/04/16 07:08:25;;;;;;;16.10;8.35;;;;;;;9.31;86.51;99163.77;4318371;82;28651;-75
2021/04/16 07:14:39;;;;;;;16.62;9.25;;;;;;;9.59;83.87;99163.84;4329768;82;28651;-75
2021/04/16 07:20:41;;;;;;;13.38;8.25;;;;;;;10.03;81.42;99170.48;4327649;82;28613;-76
2021/04/16 07:26:54;;;;;;;16.65;8.95;;;;;;;10.16;79.28;99168.70;4306127;82;28614;-78
2021/04/16 07:33:07;;;;;;;15.65;7.95;;;;;;;10.38;77.05;99163.66;4294332;82;28628;-76
2021/04/16 07:39:18;;;;;;;13.55;7.62;;;;;;;10.38;77.05;99173.61;4267623;82;28606;-80
2021/04/16 07:45:34;;;;;;;16.37;9.25;;;;;;;10.10;78.99;99159.69;4308786;82;28598;-76
2021/04/16 07:51:36;;;;;;;13.88;8.05;;;;;;;9.88;83.29;99180.25;4295722;82;28588;-76
2021/04/16 07:57:43;;;;;;;14.07;7.58;;;;;;;10.40;78.34;99174.19;4298568;81;28640;-76
2021/04/16 08:03:53;;;;;;;16.60;9.00;;;;;;;10.17;79.28;99186.47;4320322;81;28622;-75
2021/04/16 08:09:58;;;;;;;14.83;7.85;;;;;;;10.15;78.41;99188.02;4314957;81;28568;-74
2021/04/16 08:16:23;;;;;;;13.28;7.65;;;;;;;9.82;79.63;99197.27;4314554;81;28690;-75
2021/04/16 08:22:35;;;;;;;;;;;;;;;10.15;78.43;99197.94;4320599;81;28655;-74
2021/04/16 08:29:08;;;;;;;11.83;7.28;;;;;;;9.05;86.67;99194.31;4314524;81;20336;-74
2021/04/16 08:35:26;;;;;;;14.33;7.55;;;;;;;9.37;84.78;99198.80;4314603;81;28617;-75
2021/04/16 08:41:32;;;;;;;12.13;7.33;;;;;;;10.16;78.02;99197.72;4314531;81;28568;-74
2021/04/16 08:47:49;;;;;;;14.43;8.03;;;;;;;10.19;79.53;99194.58;4314519;81;28591;-74
2021/04/16 08:54:06;;;;;;;14.83;8.10;;;;;;;9.87;83.57;99193.92;4303108;82;28589;-74
2021/04/16 09:00:23;;;;;;;15.72;8.58;;;;;;;10.13;80.64;99200.87;4306743;82;28596;-75
2021/04/16 09:06:40;;;;;;;14.85;7.80;;;;;;;10.15;80.08;99196.59;4314795;81;28599;-74
2021/04/16 09:12:50;;;;;;;18.07;9.30;;;;;;;10.24;79.68;99195.78;4312595;82;28592;-74
2021/04/16 09:18:56;;;;;;;14.58;8.35;;;;;;;10.13;81.81;99206.24;4292237;82;28675;-73
2021/04/16 09:25:00;;;;;;;14.70;8.88;;;;;;;10.28;79.96;99199.66;4237537;83;28576;-74
2021/04/16 09:31:26;;;;;;;17.90;10.18;;;;;;;10.05;83.44;99203.84;4257087;82;28570;-76
2021/04/16 09:37:45;;;;;;;15.83;9.35;;;;;;;10.72;75.59;99210.30;4288238;81;28620;-75
2021/04/16 09:43:55;;;;;;;18.60;10.80;;;;;;;10.60;78.98;99204.36;4312573;81;28612;-76
2021/04/16 09:50:00;;;;;;;18.48;9.83;;;;;;;10.35;82.50;99198.23;4285304;82;28619;-75
2021/04/16 09:56:10;;;;;;;15.75;8.68;;;;;;;10.44;80.65;99203.63;4294266;82;28588;-75
2021/04/16 10:02:24;;;;;;;15.32;9.35;;;;;;;10.54;80.18;99198.53;4317817;81;28647;-74
2021/04/16 10:08:30;;;;;;;16.57;8.85;;;;;;;10.73;80.39;99203.88;4323263;81;28606;-76
2021/04/16 10:14:36;;;;;;;15.88;10.03;;;;;;;10.75;80.15;99195.05;4299570;81;28568;-75
2021/04/16 10:20:41;;;;;;;16.27;9.18;;;;;;;10.97;79.67;99204.78;4305239;81;28601;-75
2021/04/16 12:42:26;;;;;;;14.73;8.35;;;;;;;11.86;79.21;99210.38;4416369;80;28644;-81
2021/04/16 12:48:28;;;;;;;13.28;7.47;;;;;;;11.92;78.36;99221.58;4434635;80;28593;-78
2021/04/16 12:54:43;;;;;;;12.20;7.55;;;;;;;11.47;80.05;99213.55;4375097;80;28563;-81
2021/04/16 13:00:45;;;;;;;15.83;7.72;;;;;;;11.63;80.82;99224.15;4306434;80;28665;-84
2021/04/16 13:06:49;;;;;;;13.18;7.90;;;;;;;11.61;81.93;99219.53;4320343;82;28563;-82
2021/04/16 13:12:51;;;;;;;13.35;7.50;;;;;;;11.86;79.49;99216.57;4288697;82;28618;-80
2021/04/16 13:18:57;;;;;;;11.18;6.42;;;;;;;11.57;81.51;99217.83;4286363;82;28624;-80
2021/04/16 13:25:00;;;;;;;12.03;6.80;;;;;;;11.85;78.14;99211.44;4282202;80;28635;-83
2021/04/16 13:31:03;;;;;;;11.10;6.62;;;;;;;12.47;73.65;99204.67;4332057;80;28670;-81
2021/04/16 13:37:08;;;;;;;10.20;6.28;;;;;;;12.06;76.33;99207.87;4173146;84;28627;-82
2021/04/16 13:43:12;;;;;;;13.55;7.25;;;;;;;11.72;79.43;99215.18;4300692;80;28638;-81
2021/04/16 13:49:21;;;;;;;11.08;6.97;;;;;;;12.01;76.18;99213.94;4340235;81;28687;-79
2021/04/16 13:55:26;;;;;;;11.45;6.70;;;;;;;11.55;79.62;99219.91;4374535;81;28564;-75
2021/04/16 14:01:28;;;;;;;11.18;7.00;;;;;;;11.47;80.77;99224.82;4355848;81;28592;-76
2021/04/16 14:07:31;;;;;;;14.47;7.65;;;;;;;12.00;77.15;99220.39;4189108;84;28632;-75
2021/04/16 14:13:34;;;;;;;11.50;6.65;;;;;;;11.94;77.64;99227.54;4192608;83;28637;-77
2021/04/16 14:20:02;;;;;;;12.28;7.20;;;;;;;11.88;77.21;99226.31;4183325;83;28672;-77
2021/04/16 14:26:05;;;;;;;13.55;8.45;;;;;;;11.81;76.55;99225.06;4393867;80;28575;-77
2021/04/16 14:32:12;;;;;;;13.70;8.83;;;;;;;11.55;80.50;99232.02;4486761;78;28593;-77
2021/04/16 14:38:15;;;;;;;13.83;9.28;;;;;;;12.18;76.41;99230.75;4529620;78;28597;-78
2021/04/16 14:44:20;;;;;;;14.58;9.20;;;;;;;11.80;78.65;99231.00;4494562;78;28662;-77
2021/04/16 14:50:26;;;;;;;15.40;8.60;;;;;;;11.91;79.19;99225.30;4416285;79;28567;-77
2021/04/16 14:56:31;;;;;;;12.60;7.65;;;;;;;11.92;77.17;99223.44;4467928;78;43227;-78
2021/04/16 15:02:33;;;;;;;14.75;8.58;;;;;;;12.54;73.56;99233.65;4504819;78;28596;-78
2021/04/16 15:09:01;;;;;;;12.50;7.78;;;;;;;11.81;80.90;99245.27;4434433;80;28605;-77
2021/04/16 15:15:06;;;;;;;11.60;6.92;;;;;;;11.71;80.96;99250.73;4524792;78;28596;-79
2021/04/16 15:21:16;;;;;;;13.20;8.38;;;;;;;11.72;79.71;99240.77;4424284;79;28606;-78
2021/04/16 15:27:23;;;;;;;14.10;8.28;;;;;;;11.27;86.05;99242.94;4422194;80;29025;-77
2021/04/16 15:52:43;;;;;;;13.38;8.78;;;;;;;11.92;78.65;99244.48;4472221;79;75088;-79
2021/04/16 15:58:46;;;;;;;12.65;8.08;;;;;;;11.84;80.30;99248.31;4373660;80;28615;-78
2021/04/16 16:04:50;;;;;;;15.20;9.08;;;;;;;11.80;79.98;99251.20;4402248;80;28592;-79
2021/04/16 16:10:55;;;;;;;16.32;9.68;;;;;;;11.98;78.23;99250.25;4445234;80;28614;-78
2021/04/16 16:17:01;;;;;;;13.80;8.47;;;;;;;12.12;77.61;99246.82;4422175;79;28572;-82
2021/04/16 16:23:08;;;;;;;14.63;8.73;;;;;;;11.90;76.15;99230.39;4381778;80;28617;-79
2021/04/16 16:29:17;;;;;;;18.00;9.50;;;;;;;11.82;77.54;99255.02;4406365;78;28594;-82
2021/04/16 16:35:24;;;;;;;14.83;9.13;;;;;;;11.99;76.78;99253.78;4417774;80;28636;-87
2021/04/16 16:41:26;;;;;;;15.80;10.35;;;;;;;12.03;77.45;99250.09;4392148;80;28586;-80
2021/04/16 16:47:29;;;;;;;15.78;10.43;;;;;;;12.00;76.10;99254.87;4398422;80;28615;-79
2021/04/16 16:53:31;;;;;;;16.52;10.50;;;;;;;12.17;76.10;99260.94;4397783;80;28603;-78
2021/04/16 16:59:38;;;;;;;18.37;10.72;;;;;;;11.64;80.18;99268.87;4399849;80;28584;-76
2021/04/16 17:05:40;;;;;;;19.35;11.35;;;;;;;11.77;78.06;99271.05;4404776;80;28570;-78
2021/04/16 17:11:43;;;;;;;17.75;10.63;;;;;;;11.91;77.61;99264.91;4389764;80;28632;-79
2021/04/16 17:17:45;;;;;;;18.27;11.50;;;;;;;11.36;81.86;99277.06;4401362;80;28596;-80
2021/04/16 17:23:53;;;;;;;24.18;12.98;;;;;;;11.91;77.45;99283.22;4395900;78;28597;-81
2021/04/16 17:29:56;;;;;;;17.35;11.12;;;;;;;11.68;79.20;99280.81;4419314;80;28667;-79
2021/04/16 17:36:00;;;;;;;21.85;12.90;;;;;;;11.15;85.58;99282.46;4385632;80;28634;-79
2021/04/16 17:42:12;;;;;;;22.75;12.63;;;;;;;11.30;85.00;99284.73;4407017;80;28600;-78
2021/04/16 17:48:17;;;;;;;20.68;11.80;;;;;;;11.69;80.72;99289.18;4375577;80;28571;-79
2021/04/16 17:54:20;;;;;;;21.27;12.40;;;;;;;11.69;81.14;99294.56;4423074;78;44435;-82
2021/04/16 18:00:26;;;;;;;21.73;13.00;;;;;;;11.14;86.88;99303.16;4417937;78;28647;-77
2021/04/16 18:06:37;;;;;;;18.45;11.10;;;;;;;11.49;82.92;99304.32;4419511;80;29015;-87
2021/04/16 18:12:41;;;;;;;25.23;13.15;;;;;;;11.22;83.91;99303.89;4397626;80;28586;-81
2021/04/16 18:18:44;;;;;;;24.12;14.13;;;;;;;11.67;80.08;99299.37;4404412;80;28603;-83
2021/04/16 18:24:46;;;;;;;21.00;13.40;;;;;;;11.67;79.92;99310.69;4398336;78;28611;-82
2021/04/16 18:30:56;;;;;;;19.27;11.70;;;;;;;11.44;82.79;99319.81;4410990;78;28570;-82
2021/04/16 18:37:02;;;;;;;23.18;13.65;;;;;;;11.15;84.07;99315.56;4423117;78;28669;-88
2021/04/16 18:43:08;;;;;;;25.80;13.43;;;;;;;11.58;81.41;99320.44;4393514;78;28583;-91
2021/04/16 18:49:11;;;;;;;20.15;11.95;;;;;;;11.41;82.34;99322.14;4415099;80;28569;-89
2021/04/16 18:55:19;;;;;;;19.23;11.70;;;;;;;11.57;79.93;99334.96;4429608;80;28948;-86
2021/04/16 19:01:35;;;;;;;22.82;13.10;;;;;;;11.56;81.44;99330.63;4415140;80;28627;-92
2021/04/16 19:07:38;;;;;;;22.37;12.23;;;;;;;11.55;82.07;99339.73;4399721;78;28601;-88
2021/04/16 19:13:41;;;;;;;23.35;11.38;;;;;;;11.83;78.35;99339.63;4398889;80;28606;-83
2021/04/16 19:19:43;;;;;;;22.00;13.20;;;;;;;11.54;79.25;99341.33;4402524;80;28579;-89
2021/04/16 19:25:49;;;;;;;20.75;12.20;;;;;;;11.40;81.59;99336.66;4388617;78;28556;-89
2021/04/16 19:31:54;;;;;;;20.12;10.78;;;;;;;11.57;80.75;99339.00;4308102;81;28600;-87
2021/04/16 19:37:59;;;;;;;18.62;11.20;;;;;;;11.19;82.08;99344.70;4295928;81;28604;-89
2021/04/16 19:44:02;;;;;;;21.80;11.48;;;;;;;11.71;78.36;99337.44;4303580;81;28708;-87
2021/04/16 20:09:51;;;;;;;20.68;10.53;;;;;;;11.48;78.95;99333.64;4326334;81;28591;-84
2021/04/16 20:21:38;;;;;;;22.45;12.35;;;;;;;11.96;75.35;99321.59;4332474;81;28657;-82
2021/04/16 20:27:40;;;;;;;24.72;12.63;;;;;;;12.16;73.81;99328.03;4347298;79;28614;-85
2021/04/16 20:33:51;;;;;;;21.48;10.70;;;;;;;12.08;74.77;99325.68;4356583;79;28667;-84
2021/04/16 20:39:54;;;;;;;22.73;12.03;;;;;;;11.65;77.95;99320.84;4347820;79;28632;-82
2021/04/16 20:45:57;;;;;;;20.57;11.18;;;;;;;11.85;76.71;99323.23;4354242;79;28632;-82
2021/04/16 20:52:07;;;;;;;20.62;10.93;;;;;;;11.72;77.90;99328.30;4328026;81;28626;-85
2021/04/16 20:58:11;;;;;;;21.60;11.48;;;;;;;11.78;77.26;99334.12;4231868;83;28581;-83
2021/04/16 21:04:21;;;;;;;19.32;9.98;;;;;;;11.47;79.55;99335.21;4330109;80;28655;-83
2021/04/16 21:10:29;;;;;;;17.57;9.23;;;;;;;10.62;86.91;99331.02;4266192;83;28575;-84
2021/04/16 21:16:35;;;;;;;19.80;10.55;;;;;;;11.59;78.42;99330.67;4331068;82;28604;-83
2021/04/16 21:22:38;;;;;;;19.90;10.45;;;;;;;11.23;81.25;99332.45;4223597;83;28644;-83
2021/04/16 21:28:40;;;;;;;19.67;10.58;;;;;;;11.30;80.12;99334.53;4297987;80;28580;-85
2021/04/16 21:34:47;;;;;;;19.75;9.85;;;;;;;10.99;82.15;99331.00;4217368;81;28662;-83
2021/04/16 21:41:17;;;;;;;16.07;8.90;;;;;;;11.10;80.73;99325.37;4299845;80;28570;-82
2021/04/16 21:47:32;;;;;;;18.12;9.65;;;;;;;10.81;83.00;99323.25;4315631;82;28604;-83
2021/04/16 21:53:36;;;;;;;15.85;9.25;;;;;;;11.41;77.92;99331.05;4237220;83;28700;-84
2021/04/16 21:59:40;;;;;;;18.15;9.83;;;;;;;11.42;77.72;99330.00;4302184;81;28596;-85
2021/04/16 22:05:51;;;;;;;20.23;9.98;;;;;;;11.11;79.63;99331.04;4240428;82;28558;-83
2021/04/16 22:12:20;;;;;;;15.80;8.85;;;;;;;11.36;78.22;99332.25;4259279;83;28652;-84
2021/04/16 22:18:27;;;;;;;16.93;8.70;;;;;;;11.19;79.58;99330.73;4304810;82;28577;-82
2021/04/16 22:24:59;;;;;;;17.15;8.73;;;;;;;11.19;80.03;99332.08;4229832;83;28605;-83
2021/04/16 22:31:18;;;;;;;17.57;9.55;;;;;;;11.75;75.54;99331.88;4293210;80;28596;-82
2021/04/16 22:37:26;;;;;;;17.45;9.98;;;;;;;11.41;77.46;99328.36;4212080;83;28634;-84
2021/04/16 22:43:45;;;;;;;18.95;10.65;;;;;;;11.65;75.38;99320.33;4226653;82;28566;-83
2021/04/16 22:50:02;;;;;;;22.58;11.65;;;;;;;11.54;77.27;99317.09;4382875;79;70977;-83
2021/04/16 22:56:10;;;;;;;20.17;11.10;;;;;;;11.40;77.22;99317.30;4292022;80;28710;-82
2021/04/16 23:02:33;;;;;;;18.32;10.28;;;;;;;11.23;79.53;99315.75;4313274;80;28552;-82
2021/04/16 23:08:40;;;;;;;20.50;10.60;;;;;;;11.80;74.99;99320.41;4322481;80;28640;-83
2021/04/16 23:14:43;;;;;;;18.80;10.00;;;;;;;11.11;79.23;99309.52;4310508;81;28614;-82
2021/04/16 23:20:45;;;;;;;18.48;10.38;;;;;;;11.29;79.35;99300.56;4305391;80;28579;-82
2021/04/16 23:26:52;;;;;;;18.82;10.00;;;;;;;11.48;78.25;99300.50;4320424;80;28698;-83
2021/04/16 23:33:50;;;;;;;18.55;10.58;;;;;;;11.50;77.56;99295.19;4320497;81;28628;-83
2021/04/16 23:39:54;;;;;;;19.48;10.15;;;;;;;11.69;75.95;99291.07;4219326;83;28579;-83
2021/04/16 23:45:56;;;;;;;16.85;9.25;;;;;;;11.46;78.09;99281.91;4230830;82;28656;-83
2021/04/16 23:52:00;;;;;;;20.43;10.70;;;;;;;11.81;75.16;99283.81;4146057;84;28596;-84
2021/04/16 23:58:04;;;;;;;19.65;9.75;;;;;;;11.94;74.02;99273.34;4219026;83;28645;-84
